createdAt,value
2018-06-22T00:02:20.315Z,11.00
2018-06-22T00:04:48.761Z,11.10
2018-06-22T00:07:17.254Z,11.10
2018-06-22T00:09:45.782Z,11.10
2018-06-22T00:14:42.401Z,10.80
2018-06-22T00:17:10.839Z,10.90
2018-06-22T00:19:39.425Z,10.70
2018-06-22T00:22:07.898Z,10.90
2018-06-22T00:24:36.374Z,11.00
2018-06-22T00:29:33.074Z,10.90
2018-06-22T00:32:01.541Z,10.90
2018-06-22T00:34:30.001Z,10.80
2018-06-22T00:36:58.481Z,10.80
2018-06-22T00:41:58.691Z,10.80
2018-06-22T00:44:27.170Z,10.80
2018-06-22T00:46:55.638Z,10.80
2018-06-22T00:49:24.134Z,10.90
2018-06-22T00:51:52.621Z,11.00
2018-06-22T00:54:21.137Z,11.20
2018-06-22T00:56:49.713Z,11.20
2018-06-22T01:01:48.648Z,11.30
2018-06-22T01:04:17.126Z,11.30
2018-06-22T01:06:45.595Z,11.10
2018-06-22T01:09:14.438Z,10.80
2018-06-22T01:11:43.090Z,10.90
2018-06-22T01:14:11.858Z,10.80
2018-06-22T01:16:40.527Z,10.90
2018-06-22T01:19:09.550Z,10.90
2018-06-22T01:21:38.065Z,10.80
2018-06-22T01:24:07.017Z,10.80
2018-06-22T01:26:35.494Z,10.80
2018-06-22T01:29:09.402Z,11.00
2018-06-22T01:31:37.889Z,11.00
2018-06-22T01:34:06.386Z,10.90
2018-06-22T01:39:03.309Z,10.50
2018-06-22T01:41:31.804Z,10.40
2018-06-22T01:44:00.309Z,10.70
2018-06-22T01:46:28.800Z,10.90
2018-06-22T01:48:57.272Z,10.90
2018-06-22T01:51:25.822Z,10.70
2018-06-22T01:53:54.376Z,10.60
2018-06-22T01:56:23.038Z,10.50
2018-06-22T01:58:51.658Z,10.50
2018-06-22T02:01:20.292Z,10.20
2018-06-22T02:03:48.802Z,10.30
2018-06-22T02:06:17.297Z,10.30
2018-06-22T02:08:45.766Z,10.40
2018-06-22T02:11:14.345Z,10.40
2018-06-22T02:13:42.802Z,10.10
2018-06-22T02:18:39.620Z,10.00
2018-06-22T02:21:08.191Z,10.10
2018-06-22T02:23:36.782Z,10.10
2018-06-22T02:26:05.372Z,10.00
2018-06-22T02:28:34.301Z,10.00
2018-06-22T02:31:02.909Z,10.00
2018-06-22T02:33:31.495Z,10.00
2018-06-22T02:36:00.210Z,10.00
2018-06-22T02:38:28.998Z,10.10
2018-06-22T02:41:02.488Z,10.10
2018-06-22T02:43:31.106Z,9.90
2018-06-22T02:45:59.738Z,10.10
2018-06-22T02:48:28.413Z,10.00
2018-06-22T02:53:25.428Z,9.80
2018-06-22T02:55:54.260Z,9.90
2018-06-22T03:00:51.531Z,10.10
2018-06-22T03:03:20.133Z,10.00
2018-06-22T03:05:48.657Z,9.90
2018-06-22T03:08:17.640Z,10.00
2018-06-22T03:10:46.222Z,10.00
2018-06-22T03:13:14.829Z,10.10
2018-06-22T03:15:43.517Z,10.30
2018-06-22T03:18:12.022Z,10.30
2018-06-22T03:20:40.748Z,10.20
2018-06-22T03:23:09.798Z,10.00
2018-06-22T03:25:39.207Z,10.10
2018-06-22T03:28:07.921Z,10.10
2018-06-22T03:30:36.486Z,10.00
2018-06-22T03:33:05.616Z,10.20
2018-06-22T03:35:34.556Z,10.20
2018-06-22T03:38:03.084Z,10.10
2018-06-22T03:40:31.583Z,10.10
2018-06-22T03:43:00.150Z,10.20
2018-06-22T03:45:28.649Z,10.20
2018-06-22T03:47:57.234Z,10.30
2018-06-22T03:50:25.815Z,10.20
2018-06-22T03:52:54.326Z,10.20
2018-06-22T03:55:22.890Z,10.40
2018-06-22T03:57:51.415Z,10.40
2018-06-22T04:00:19.977Z,10.50
2018-06-22T04:02:48.666Z,10.50
2018-06-22T04:05:17.254Z,10.50
2018-06-22T04:07:46.038Z,10.40
2018-06-22T04:10:14.729Z,10.40
2018-06-22T04:12:43.289Z,10.30
2018-06-22T04:15:11.827Z,10.40
2018-06-22T04:17:48.837Z,10.50
2018-06-22T04:20:18.435Z,10.20
2018-06-22T04:25:15.822Z,10.10
2018-06-22T04:27:45.351Z,10.30
2018-06-22T04:30:14.264Z,10.40
2018-06-22T04:32:43.047Z,11.20
2018-06-22T04:35:11.786Z,12.90
2018-06-22T04:37:43.158Z,14.50
2018-06-22T04:40:11.867Z,15.40
2018-06-22T04:42:40.686Z,16.50
2018-06-22T04:45:09.480Z,17.10
2018-06-22T04:47:38.050Z,17.40
2018-06-22T04:50:07.498Z,17.60
2018-06-22T04:52:36.462Z,17.30
2018-06-22T04:55:04.975Z,17.60
2018-06-22T04:57:33.902Z,17.30
2018-06-22T05:00:02.509Z,16.80
2018-06-22T05:02:31.016Z,16.80
2018-06-22T05:05:00.649Z,16.60
2018-06-22T05:07:29.919Z,16.70
2018-06-22T05:09:58.392Z,16.60
2018-06-22T05:12:28.382Z,16.60
2018-06-22T05:14:56.857Z,17.30
2018-06-22T05:17:25.643Z,17.60
2018-06-22T05:19:54.737Z,17.70
2018-06-22T05:22:25.186Z,17.30
2018-06-22T05:24:55.374Z,16.20
2018-06-22T05:27:23.949Z,16.30
2018-06-22T05:29:52.483Z,16.40
2018-06-22T05:32:21.753Z,16.80
2018-06-22T05:34:50.481Z,17.20
2018-06-22T05:37:19.186Z,17.90
2018-06-22T05:39:47.833Z,18.90
2018-06-22T05:42:16.593Z,18.50
2018-06-22T05:44:45.345Z,18.20
2018-06-22T05:52:37.513Z,19.40
2018-06-22T05:55:06.573Z,20.10
2018-06-22T05:57:41.539Z,20.40
2018-06-22T06:05:13.854Z,19.70
2018-06-22T06:07:42.627Z,18.90
2018-06-22T06:10:11.418Z,19.70
2018-06-22T06:12:40.218Z,20.50
2018-06-22T06:15:09.043Z,20.30
2018-06-22T06:17:37.741Z,20.00
2018-06-22T06:20:09.469Z,20.00
2018-06-22T06:22:38.405Z,19.70
2018-06-22T06:25:07.396Z,19.70
2018-06-22T06:27:37.338Z,19.10
2018-06-22T06:30:06.762Z,18.90
2018-06-22T06:32:35.738Z,19.10
2018-06-22T06:35:04.769Z,18.90
2018-06-22T06:40:02.569Z,17.90
2018-06-22T06:42:31.363Z,17.30
2018-06-22T06:45:00.435Z,16.40
2018-06-22T06:47:29.121Z,15.80
2018-06-22T06:52:27.574Z,14.80
2018-06-22T06:54:56.155Z,14.30
2018-06-22T06:57:24.721Z,14.40
2018-06-22T06:59:53.387Z,14.80
2018-06-22T07:02:22.306Z,14.90
2018-06-22T07:04:51.168Z,14.60
2018-06-22T07:07:19.932Z,14.30
2018-06-22T07:09:48.612Z,13.90
2018-06-22T07:12:17.409Z,13.60
2018-06-22T07:14:46.968Z,13.70
2018-06-22T07:17:16.876Z,14.10
2018-06-22T07:19:45.843Z,14.60
2018-06-22T07:22:14.602Z,14.30
2018-06-22T07:24:43.402Z,14.10
2018-06-22T07:27:12.080Z,14.00
2018-06-22T07:29:40.678Z,14.10
2018-06-22T07:32:09.433Z,14.20
2018-06-22T07:34:38.279Z,14.30
2018-06-22T07:37:07.147Z,14.20
2018-06-22T07:39:35.869Z,13.90
2018-06-22T07:42:04.907Z,13.80
2018-06-22T07:44:33.626Z,14.00
2018-06-22T07:47:02.390Z,13.80
2018-06-22T07:49:31.160Z,13.80
2018-06-22T07:51:59.854Z,13.90
2018-06-22T07:54:28.620Z,13.70
2018-06-22T07:56:57.446Z,13.90
2018-06-22T07:59:26.128Z,14.00
2018-06-22T08:01:54.922Z,14.00
2018-06-22T08:04:23.742Z,13.70
2018-06-22T08:09:20.750Z,13.90
2018-06-22T08:11:49.508Z,14.10
2018-06-22T08:14:18.317Z,14.70
2018-06-22T08:16:47.187Z,14.40
2018-06-22T08:19:15.851Z,13.90
2018-06-22T08:21:44.617Z,13.60
2018-06-22T08:24:13.381Z,13.60
2018-06-22T08:26:42.055Z,13.50
2018-06-22T08:29:11.244Z,13.30
2018-06-22T08:31:40.345Z,13.40
2018-06-22T08:34:09.166Z,13.50
2018-06-22T08:36:38.941Z,13.60
2018-06-22T08:39:11.301Z,13.60
2018-06-22T08:41:43.320Z,13.60
2018-06-22T08:44:12.048Z,13.70
2018-06-22T08:49:09.230Z,14.60
2018-06-22T08:54:07.467Z,14.90
2018-06-22T08:56:36.287Z,15.10
2018-06-22T08:59:05.967Z,15.40
2018-06-22T09:01:34.985Z,14.90
2018-06-22T09:04:06.568Z,14.80
2018-06-22T09:06:35.621Z,14.60
2018-06-22T09:09:08.403Z,14.40
2018-06-22T09:11:42.137Z,14.40
2018-06-22T09:14:12.504Z,15.00
2018-06-22T09:16:41.159Z,15.10
2018-06-22T09:19:09.835Z,14.70
2018-06-22T09:21:40.881Z,14.60
2018-06-22T09:24:09.661Z,14.50
2018-06-22T09:29:06.719Z,14.60
2018-06-22T09:31:35.398Z,14.80
2018-06-22T09:34:04.067Z,14.80
2018-06-22T09:36:32.775Z,14.60
2018-06-22T09:39:13.762Z,14.40
2018-06-22T09:41:42.486Z,14.60
2018-06-22T09:44:21.308Z,14.70
2018-06-22T09:46:50.017Z,14.40
2018-06-22T09:49:18.766Z,14.60
2018-06-22T09:51:47.390Z,14.50
2018-06-22T09:54:16.100Z,14.50
2018-06-22T09:56:44.768Z,14.70
2018-06-22T09:59:13.428Z,14.60
2018-06-22T10:01:41.986Z,14.60
2018-06-22T10:04:11.268Z,14.60
2018-06-22T10:06:40.015Z,14.60
2018-06-22T10:09:14.313Z,14.40
2018-06-22T10:11:43.985Z,14.80
2018-06-22T10:14:14.139Z,15.00
2018-06-22T10:16:43.338Z,14.70
2018-06-22T10:19:16.443Z,15.30
2018-06-22T10:21:46.997Z,15.10
2018-06-22T10:24:16.711Z,15.40
2018-06-22T10:26:48.781Z,15.80
2018-06-22T10:29:18.080Z,16.00
2018-06-22T10:32:54.157Z,15.80
2018-06-22T10:38:18.649Z,16.60
2018-06-22T10:40:49.261Z,16.30
2018-06-22T10:43:21.895Z,16.10
2018-06-22T10:45:51.764Z,15.60
2018-06-22T10:48:26.803Z,15.90
2018-06-22T10:51:03.567Z,15.70
2018-06-22T10:53:36.063Z,15.30
2018-06-22T10:56:07.108Z,15.20
2018-06-22T10:58:37.649Z,15.20
2018-06-22T11:01:15.850Z,15.60
2018-06-22T11:03:44.955Z,15.80
2018-06-22T11:06:14.591Z,16.20
2018-06-22T11:08:44.943Z,16.40
2018-06-22T11:11:16.532Z,16.50
2018-06-22T11:13:46.639Z,16.50
2018-06-22T11:16:15.724Z,16.80
2018-06-22T11:18:45.049Z,16.80
2018-06-22T11:21:16.597Z,16.40
2018-06-22T11:23:45.894Z,16.00
2018-06-22T11:26:15.193Z,15.60
2018-06-22T11:28:43.925Z,15.60
2018-06-22T11:31:12.899Z,16.00
2018-06-22T11:33:41.474Z,15.90
2018-06-22T11:36:09.939Z,16.40
2018-06-22T11:38:38.495Z,16.90
2018-06-22T11:41:07.245Z,17.00
2018-06-22T11:43:36.051Z,16.90
2018-06-22T11:46:04.618Z,16.30
2018-06-22T11:48:33.311Z,15.90
2018-06-22T11:51:01.897Z,16.30
2018-06-22T11:53:30.536Z,16.20
2018-06-22T11:58:27.218Z,16.10
2018-06-22T12:00:55.748Z,15.80
2018-06-22T12:03:24.242Z,15.30
2018-06-22T12:05:52.781Z,15.10
2018-06-22T12:08:21.310Z,15.20
2018-06-22T12:10:49.810Z,15.60
2018-06-22T12:13:18.702Z,16.10
2018-06-22T12:18:15.558Z,16.40
2018-06-22T12:20:44.054Z,16.50
2018-06-22T12:25:40.787Z,17.00
2018-06-22T12:28:11.380Z,16.50
2018-06-22T12:30:42.347Z,16.60
2018-06-22T12:33:11.515Z,16.70
2018-06-22T12:35:40.032Z,16.50
2018-06-22T12:38:08.715Z,16.40
2018-06-22T12:40:37.298Z,16.80
2018-06-22T12:43:06.343Z,17.00
2018-06-22T12:45:34.929Z,17.10
2018-06-22T12:48:03.660Z,17.30
2018-06-22T12:50:32.677Z,17.40
2018-06-22T12:53:01.359Z,17.30
2018-06-22T12:55:29.910Z,17.10
2018-06-22T12:57:58.519Z,16.90
2018-06-22T13:00:27.177Z,16.70
2018-06-22T13:02:56.001Z,16.60
2018-06-22T13:05:24.926Z,16.20
2018-06-22T13:08:17.783Z,15.90
2018-06-22T13:10:46.593Z,16.00
2018-06-22T13:13:15.599Z,16.20
2018-06-22T13:15:44.543Z,16.30
2018-06-22T13:18:13.382Z,16.80
2018-06-22T13:20:42.162Z,17.30
2018-06-22T13:23:11.106Z,17.30
2018-06-22T13:25:40.082Z,17.40
2018-06-22T13:28:08.566Z,17.60
2018-06-22T13:30:38.036Z,17.60
2018-06-22T13:33:06.551Z,17.30
2018-06-22T13:35:35.049Z,17.00
2018-06-22T13:38:03.655Z,17.10
2018-06-22T13:43:01.329Z,16.40
2018-06-22T13:45:30.054Z,16.20
2018-06-22T13:47:58.744Z,16.20
2018-06-22T13:50:27.434Z,16.60
2018-06-22T13:52:56.114Z,17.10
2018-06-22T13:55:24.972Z,17.30
2018-06-22T13:57:53.619Z,17.10
2018-06-22T14:00:22.307Z,17.20
2018-06-22T14:02:50.988Z,16.90
2018-06-22T14:05:25.315Z,16.80
2018-06-22T14:07:53.841Z,16.80
2018-06-22T14:10:22.435Z,17.10
2018-06-22T14:12:51.028Z,17.10
2018-06-22T14:15:19.771Z,16.80
2018-06-22T14:17:48.373Z,17.00
2018-06-22T14:20:17.028Z,16.80
2018-06-22T14:22:45.711Z,16.60
2018-06-22T14:25:14.453Z,16.50
2018-06-22T14:27:43.298Z,16.20
2018-06-22T14:30:12.095Z,16.00
2018-06-22T14:32:40.732Z,16.00
2018-06-22T14:35:09.543Z,16.20
2018-06-22T14:37:38.171Z,16.40
2018-06-22T14:40:06.757Z,16.10
2018-06-22T14:42:35.418Z,16.00
2018-06-22T14:45:04.127Z,16.00
2018-06-22T14:47:32.625Z,16.10
2018-06-22T14:55:03.504Z,16.10
2018-06-22T15:00:11.019Z,16.10
2018-06-22T15:02:44.933Z,16.30
2018-06-22T15:05:18.768Z,16.40
2018-06-22T15:07:55.403Z,16.30
2018-06-22T15:12:52.831Z,16.20
2018-06-22T15:15:21.391Z,16.40
2018-06-22T15:17:52.322Z,16.40
2018-06-22T15:20:21.192Z,16.30
2018-06-22T15:25:17.949Z,16.70
2018-06-22T15:27:46.478Z,16.50
2018-06-22T15:30:14.974Z,16.20
2018-06-22T15:32:43.453Z,15.90
2018-06-22T15:35:17.216Z,15.70
2018-06-22T15:37:51.138Z,15.80
2018-06-22T15:40:24.937Z,15.80
2018-06-22T15:42:58.810Z,15.70
2018-06-22T15:45:33.487Z,15.90
2018-06-22T15:48:07.243Z,16.20
2018-06-22T15:50:41.026Z,16.50
2018-06-22T15:53:14.770Z,16.30
2018-06-22T15:58:14.318Z,15.80
2018-06-22T16:00:42.876Z,15.60
2018-06-22T16:03:16.644Z,15.50
2018-06-22T16:05:45.402Z,15.60
2018-06-22T16:08:13.887Z,15.60
2018-06-22T16:10:42.363Z,15.80
2018-06-22T16:13:16.204Z,15.90
2018-06-22T16:15:50.001Z,15.90
2018-06-22T16:18:23.753Z,16.00
2018-06-22T16:21:55.218Z,15.90
2018-06-22T16:24:29.112Z,15.90
2018-06-22T16:27:02.951Z,16.10
2018-06-22T16:29:36.698Z,16.00
2018-06-22T16:32:05.315Z,15.80
2018-06-22T16:34:33.833Z,15.80
2018-06-22T16:37:02.345Z,15.50
2018-06-22T16:39:30.878Z,15.70
2018-06-22T16:42:00.018Z,15.60
2018-06-22T16:44:28.516Z,15.50
2018-06-22T16:46:57.027Z,15.30
2018-06-22T16:51:59.823Z,15.60
2018-06-22T16:54:28.344Z,15.80
2018-06-22T16:56:56.853Z,16.00
2018-06-22T16:59:25.336Z,15.70
2018-06-22T17:01:54.036Z,15.50
2018-06-22T17:04:22.545Z,15.40
2018-06-22T17:06:56.354Z,15.50
2018-06-22T17:09:42.300Z,15.40
2018-06-22T17:12:16.085Z,15.60
2018-06-22T17:14:49.845Z,16.00
2018-06-22T17:17:23.622Z,16.20
2018-06-22T17:19:52.204Z,16.00
2018-06-22T17:22:20.762Z,15.80
2018-06-22T17:24:49.295Z,15.60
2018-06-22T17:27:17.802Z,15.80
2018-06-22T17:29:46.309Z,15.70
2018-06-22T17:32:14.836Z,15.70
2018-06-22T17:34:43.398Z,15.70
2018-06-22T17:37:11.889Z,15.90
2018-06-22T17:39:40.518Z,15.80
2018-06-22T17:42:09.208Z,15.80
2018-06-22T17:44:37.583Z,15.80
2018-06-22T17:47:06.137Z,15.80
2018-06-22T17:49:34.657Z,15.60
2018-06-22T17:52:03.161Z,15.60
2018-06-22T17:54:31.653Z,15.60
2018-06-22T17:57:00.125Z,15.60
2018-06-22T17:59:34.068Z,15.60
2018-06-22T18:02:07.929Z,15.30
2018-06-22T18:07:12.434Z,15.20
2018-06-22T18:09:46.274Z,15.50
2018-06-22T18:12:20.223Z,15.50
2018-06-22T18:14:49.371Z,15.60
2018-06-22T18:17:18.000Z,15.70
2018-06-22T18:19:46.582Z,15.50
2018-06-22T18:22:15.200Z,15.20
2018-06-22T18:24:43.961Z,15.10
2018-06-22T18:27:12.558Z,14.90
2018-06-22T18:29:44.845Z,14.90
2018-06-22T18:32:13.500Z,14.70
2018-06-22T18:34:42.144Z,14.60
2018-06-22T18:37:10.760Z,14.60
2018-06-22T18:39:39.418Z,14.60
2018-06-22T18:44:36.562Z,14.30
2018-06-22T18:47:05.230Z,14.40
2018-06-22T18:49:34.017Z,14.30
2018-06-22T18:52:07.910Z,14.30
2018-06-22T18:54:42.699Z,14.30
2018-06-22T18:57:17.116Z,14.30
2018-06-22T19:02:23.676Z,14.40
2018-06-22T19:04:52.348Z,14.30
2018-06-22T19:09:50.193Z,14.50
2018-06-22T19:12:18.841Z,14.40
2018-06-22T19:14:47.439Z,14.40
2018-06-22T19:17:16.600Z,14.30
2018-06-22T19:19:45.208Z,14.30
2018-06-22T19:22:14.355Z,14.30
2018-06-22T19:24:43.235Z,14.20
2018-06-22T19:27:11.893Z,14.00
2018-06-22T19:29:40.389Z,13.90
2018-06-22T19:32:09.028Z,13.90
2018-06-22T19:34:50.042Z,13.80
2018-06-22T19:37:18.626Z,13.60
2018-06-22T19:39:47.129Z,13.70
2018-06-22T19:44:49.269Z,13.70
2018-06-22T19:47:23.032Z,13.70
2018-06-22T19:52:30.909Z,13.60
2018-06-22T19:54:59.442Z,13.60
2018-06-22T19:59:56.029Z,13.50
2018-06-22T20:02:24.566Z,13.50
2018-06-22T20:04:53.112Z,13.40
2018-06-22T20:07:21.712Z,13.30
2018-06-22T20:09:54.955Z,13.40
2018-06-22T20:12:23.587Z,13.30
2018-06-22T20:14:52.073Z,13.10
2018-06-22T20:17:20.577Z,13.20
2018-06-22T20:19:49.089Z,13.20
2018-06-22T20:22:17.680Z,13.20
2018-06-22T20:24:52.558Z,13.20
2018-06-22T20:27:21.077Z,13.30
2018-06-22T20:29:49.577Z,13.20
2018-06-22T20:32:18.119Z,13.10
2018-06-22T20:34:51.883Z,13.00
2018-06-22T20:37:25.740Z,13.00
2018-06-22T20:39:59.536Z,13.00
2018-06-22T20:42:33.406Z,13.00
2018-06-22T20:45:07.186Z,13.10
2018-06-22T20:47:41.228Z,13.10
2018-06-22T20:50:15.150Z,13.10
2018-06-22T20:52:43.611Z,13.10
2018-06-22T20:55:12.233Z,13.00
2018-06-22T20:57:40.786Z,13.00
2018-06-22T21:00:09.346Z,12.90
2018-06-22T21:02:37.901Z,12.80
2018-06-22T21:05:06.448Z,12.90
2018-06-22T21:07:35.174Z,12.80
2018-06-22T21:10:03.768Z,12.80
2018-06-22T21:12:40.417Z,12.80
2018-06-22T21:15:00.874Z,12.80
2018-06-22T21:17:29.415Z,12.80
2018-06-22T21:19:57.905Z,12.90
2018-06-22T21:24:54.585Z,12.60
2018-06-22T21:27:28.388Z,12.50
2018-06-22T21:30:02.124Z,12.60
2018-06-22T21:32:35.921Z,12.50
2018-06-22T21:35:09.825Z,12.40
2018-06-22T21:37:43.573Z,12.50
2018-06-22T21:42:40.254Z,12.40
2018-06-22T21:47:36.874Z,12.40
2018-06-22T21:50:05.550Z,12.30
2018-06-22T21:52:34.042Z,12.40
2018-06-22T21:55:02.533Z,12.40
2018-06-22T21:57:31.024Z,12.50
2018-06-22T21:59:59.509Z,12.40
2018-06-22T22:02:28.006Z,12.30
2018-06-22T22:04:56.497Z,12.40
2018-06-22T22:09:53.211Z,12.30
2018-06-22T22:12:21.745Z,12.20
2018-06-22T22:14:50.249Z,12.10
2018-06-22T22:17:18.907Z,12.00
2018-06-22T22:22:15.533Z,12.10
2018-06-22T22:24:43.987Z,12.00
2018-06-22T22:27:12.506Z,12.00
2018-06-22T22:29:41.004Z,12.10
2018-06-22T22:34:37.744Z,12.10
2018-06-22T22:37:06.237Z,11.90
2018-06-22T22:39:34.718Z,11.90
2018-06-22T22:42:03.516Z,11.80
2018-06-22T22:44:31.973Z,11.90
2018-06-22T22:47:00.702Z,12.00
2018-06-22T22:49:29.554Z,12.00
2018-06-22T22:51:58.033Z,11.90
2018-06-22T22:54:26.859Z,12.00
2018-06-22T22:56:55.382Z,12.00
2018-06-22T22:59:23.869Z,12.00
2018-06-22T23:01:52.392Z,11.80
2018-06-22T23:06:49.106Z,11.80
2018-06-22T23:09:17.877Z,11.70
2018-06-22T23:11:46.337Z,11.70
2018-06-22T23:14:14.816Z,11.70
2018-06-22T23:19:11.420Z,11.70
2018-06-22T23:21:39.909Z,11.70
2018-06-22T23:24:08.644Z,11.70
2018-06-22T23:26:37.150Z,11.70
2018-06-22T23:29:05.610Z,11.60
2018-06-22T23:31:34.104Z,11.60
2018-06-22T23:34:02.653Z,11.50
2018-06-22T23:36:31.177Z,11.60
2018-06-22T23:38:59.687Z,11.50
2018-06-22T23:41:28.188Z,11.50
2018-06-22T23:43:56.665Z,11.50
2018-06-22T23:46:25.169Z,11.50
2018-06-22T23:48:54.168Z,11.50
2018-06-22T23:51:22.666Z,11.50
2018-06-22T23:53:51.148Z,11.40
2018-06-22T23:56:19.681Z,11.40
2018-06-22T23:58:48.154Z,11.40
